Time;durP1;ratioP1;P1;durP2;ratioP2;P2;SDS_P1;SDS_P2;PMS_P1;PMS_P2;Temp;Humidity;BMP_temperature;BMP_pressure;BME280_temperature;BME280_humidity;BME280_pressure;Samples;Min_cycle;Max_cycle;Signal;HPM_P1;HPM_P2
2021/01/12 00:02:09;;;;;;;;;93.00;73.75;;;;;2.13;72.47;102229.25;5142346;27;8901;-74
2021/01/12 00:04:46;;;;;;;;;94.33;73.00;;;;;2.15;72.81;102231.78;5141850;27;8813;-74
2021/01/12 00:07:18;;;;;;;;;96.75;76.00;;;;;2.17;72.32;102221.44;5158077;27;8829;-74
2021/01/12 00:10:11;;;;;;;;;95.00;74.67;;;;;2.23;72.50;102223.25;5143869;27;9667;-74
2021/01/12 00:13:07;;;;;;;;;87.00;69.67;;;;;2.14;72.59;102217.28;5144133;27;9613;-74
2021/01/12 00:16:02;;;;;;;;;88.67;68.00;;;;;2.25;72.19;102209.34;5143713;27;8849;-74
2021/01/12 00:18:58;;;;;;;;;98.00;76.67;;;;;2.28;71.69;102209.69;5152134;27;8879;-74
2021/01/12 00:21:40;;;;;;;;;82.00;65.00;;;;;2.25;71.99;102212.06;5135271;27;8845;-74
2021/01/12 00:24:35;;;;;;;;;100.25;79.00;;;;;2.26;71.96;102213.72;5156772;27;8893;-74
2021/01/12 00:27:31;;;;;;;;;95.50;74.50;;;;;2.28;71.98;102209.69;5157054;27;8879;-74
2021/01/12 00:30:27;;;;;;;;;98.75;76.75;;;;;2.16;72.04;102212.44;5157711;27;8866;-74
2021/01/12 00:33:22;;;;;;;;;84.75;68.25;;;;;2.09;71.41;102219.06;5156807;27;8905;-74
2021/01/12 00:36:18;;;;;;;;;103.75;83.00;;;;;1.99;72.03;102224.28;5143448;27;8832;-74
2021/01/12 00:39:13;;;;;;;;;100.00;78.75;;;;;2.02;72.25;102216.47;5156379;27;8841;-74
2021/01/12 00:42:09;;;;;;;;;105.50;85.25;;;;;1.83;72.16;102213.00;5137565;27;8821;-74
2021/01/12 00:44:50;;;;;;;;;102.00;78.75;;;;;1.82;72.63;102210.50;5148351;27;9585;-75
2021/01/12 00:47:26;;;;;;;;;104.50;88.00;;;;;1.88;72.44;102190.47;5142046;27;8835;-74
2021/01/12 00:50:21;;;;;;;;;102.50;82.25;;;;;2.00;72.06;102201.41;5136160;27;8819;-74
2021/01/12 00:53:20;;;;;;;;;99.75;77.25;;;;;1.67;72.46;102195.41;5137168;27;8827;-74
2021/01/12 00:56:16;;;;;;;;;91.75;70.50;;;;;1.86;72.38;102190.72;5135465;27;8882;-75
2021/01/12 00:59:11;;;;;;;;;92.00;73.00;;;;;2.06;71.79;102195.78;5134690;27;8838;-74
2021/01/12 01:01:39;;;;;;;;;97.67;75.33;;;;;1.79;72.24;102190.00;5136713;27;8892;-74
2021/01/12 01:04:25;;;;;;;;;90.67;64.33;;;;;1.71;72.29;102184.88;5136528;27;8844;-74
2021/01/12 01:07:21;;;;;;;;;97.25;74.00;;;;;1.70;71.51;102183.22;5135106;27;8857;-74
2021/01/12 01:09:57;;;;;;;;;93.00;67.50;;;;;1.59;72.19;102186.75;5119184;27;8854;-74
2021/01/12 01:12:52;;;;;;;;;93.75;74.25;;;;;1.63;71.88;102180.59;5121659;27;8827;-74
2021/01/12 01:15:20;;;;;;;;;100.50;77.75;;;;;1.65;71.77;102174.91;5135935;27;8850;-74
2021/01/12 01:18:15;;;;;;;;;104.50;78.75;;;;;1.62;71.74;102183.56;5141665;27;8817;-74
2021/01/12 01:21:14;;;;;;;;;92.00;72.75;;;;;1.57;71.86;102186.97;5155603;27;8841;-74
2021/01/12 01:24:10;;;;;;;;;99.00;76.00;;;;;1.54;72.33;102186.63;5142327;27;8819;-74
2021/01/12 01:27:05;;;;;;;;;90.75;73.50;;;;;1.58;72.40;102188.66;5122286;27;8833;-74
2021/01/12 01:30:01;;;;;;;;;91.50;68.50;;;;;1.51;71.69;102185.19;5121244;27;8835;-73
2021/01/12 01:32:58;;;;;;;;;83.25;65.50;;;;;1.57;72.70;102186.97;5121117;27;8838;-74
2021/01/12 01:35:53;;;;;;;;;96.75;76.75;;;;;1.50;71.91;102197.16;5135730;27;8827;-74
2021/01/12 01:38:49;;;;;;;;;99.50;77.00;;;;;1.46;72.17;102197.84;5134937;27;8815;-74
2021/01/12 01:41:44;;;;;;;;;105.25;78.50;;;;;1.32;72.94;102202.69;5134774;27;8897;-74
2021/01/12 01:44:40;;;;;;;;;105.00;82.50;;;;;1.33;72.90;102207.09;5126657;27;8817;-73
2021/01/12 01:47:36;;;;;;;;;108.75;93.75;;;;;1.36;72.94;102204.72;5155107;27;8932;-74
2021/01/12 01:50:04;;;;;;;;;101.25;81.50;;;;;1.31;73.28;102209.22;5120553;27;8862;-73
2021/01/12 01:53:00;;;;;;;;;100.00;78.50;;;;;1.27;73.21;102208.84;5120703;27;8811;-73
2021/01/12 01:55:58;;;;;;;;;103.00;79.25;;;;;1.54;72.54;102205.72;5147591;27;8846;-73
2021/01/12 01:58:54;;;;;;;;;99.50;76.00;;;;;1.41;72.91;102209.47;5154681;27;8845;-74
2021/01/12 02:01:50;;;;;;;;;99.50;78.50;;;;;1.35;73.40;102200.31;5126487;27;8861;-73
2021/01/12 02:04:46;;;;;;;;;97.25;75.75;;;;;1.49;72.87;102192.78;5128825;27;8809;-74
2021/01/12 02:07:44;;;;;;;;;103.75;77.00;;;;;1.57;72.96;102191.63;5155177;27;8833;-73
2021/01/12 02:10:45;;;;;;;;;97.25;71.75;;;;;1.44;73.09;102191.81;5142721;27;8831;-73
2021/01/12 02:13:44;;;;;;;;;92.75;74.50;;;;;1.36;72.83;102177.44;5138887;27;8846;-74
2021/01/12 02:16:40;;;;;;;;;104.00;76.00;;;;;1.37;73.10;102178.28;5136755;27;9576;-74
2021/01/12 02:19:38;;;;;;;;;98.00;73.75;;;;;1.34;73.33;102176.03;5134847;27;8863;-74
2021/01/12 02:22:07;;;;;;;;;106.50;76.00;;;;;1.27;73.71;102180.75;5135248;27;8859;-75
2021/01/12 02:25:04;;;;;;;;;104.75;76.25;;;;;1.28;73.24;102174.22;5121079;27;8903;-73
2021/01/12 02:28:00;;;;;;;;;97.50;75.25;;;;;1.37;72.96;102190.00;5133625;27;8819;-73
2021/01/12 02:30:27;;;;;;;;;106.00;82.50;;;;;1.15;73.35;102188.91;5136372;27;9592;-74
2021/01/12 02:33:13;;;;;;;;;98.75;73.00;;;;;1.22;73.54;102189.59;5155031;27;8852;-73
2021/01/12 02:36:02;;;;;;;;;116.75;100.25;;;;;1.24;73.49;102203.03;5147913;27;8941;-74
2021/01/12 02:38:30;;;;;;;;;109.00;79.25;;;;;1.37;73.52;102197.34;5116674;27;8823;-74
2021/01/12 02:41:32;;;;;;;;;108.50;88.25;;;;;1.59;73.24;102189.47;5119740;27;8843;-74
2021/01/12 02:44:28;;;;;;;;;111.75;93.00;;;;;1.51;72.84;102189.81;5121838;27;8852;-74
2021/01/12 02:47:23;;;;;;;;;112.00;100.25;;;;;1.50;73.03;102186.25;5132737;27;8827;-74
2021/01/12 02:50:19;;;;;;;;;117.75;90.00;;;;;1.41;73.20;102174.03;5120021;27;8795;-74
2021/01/12 02:53:14;;;;;;;;;119.50;97.50;;;;;1.49;73.38;102178.31;5153873;27;8840;-74
2021/01/12 02:56:10;;;;;;;;;113.75;86.00;;;;;1.49;72.46;102176.41;5139899;27;8821;-74
2021/01/12 02:59:06;;;;;;;;;108.00;89.75;;;;;1.38;72.82;102167.16;5139927;27;8837;-74
2021/01/12 03:02:01;;;;;;;;;103.75;81.75;;;;;1.44;72.95;102159.91;5123483;27;8815;-74
2021/01/12 03:04:57;;;;;;;;;106.75;80.25;;;;;1.45;73.01;102160.75;5139877;27;8817;-74
2021/01/12 03:07:54;;;;;;;;;103.25;79.00;;;;;1.28;72.94;102145.06;5134303;27;8938;-73
2021/01/12 03:10:49;;;;;;;;;91.50;67.25;;;;;1.20;73.28;102142.69;5132966;27;8827;-74
2021/01/12 03:13:45;;;;;;;;;103.75;75.50;;;;;1.17;73.48;102145.06;5133405;27;8815;-74
2021/01/12 03:16:41;;;;;;;;;112.75;100.75;;;;;1.28;73.49;102139.63;5137271;27;8835;-75
2021/01/12 03:19:36;;;;;;;;;107.00;82.25;;;;;1.24;73.22;102141.16;5155766;27;8863;-74
2021/01/12 03:22:32;;;;;;;;;115.00;90.25;;;;;1.06;74.44;102133.03;5158409;27;8881;-75
2021/01/12 03:25:28;;;;;;;;;117.75;92.75;;;;;1.31;73.24;102122.81;5140115;27;8850;-74
2021/01/12 03:28:23;;;;;;;;;114.25;96.75;;;;;1.38;73.70;102122.69;5123133;27;8859;-74
2021/01/12 03:31:19;;;;;;;;;111.00;94.25;;;;;1.33;73.67;102125.31;5149822;27;8817;-74
2021/01/12 03:33:47;;;;;;;;;110.00;91.75;;;;;1.28;74.15;102131.44;5141907;27;8864;-74
2021/01/12 03:36:43;;;;;;;;;119.25;93.50;;;;;1.31;73.79;102138.34;5157916;27;8837;-74
2021/01/12 03:39:38;;;;;;;;;111.25;92.00;;;;;1.38;73.78;102141.75;5144074;27;8852;-73
2021/01/12 03:42:06;;;;;;;;;112.25;90.75;;;;;1.31;73.83;102141.91;5158599;27;8829;-73
2021/01/12 03:45:04;;;;;;;;;111.75;87.50;;;;;1.48;73.52;102141.22;5157678;27;8805;-73
2021/01/12 03:47:32;;;;;;;;;111.00;83.00;;;;;1.42;73.96;102142.97;5159072;27;8817;-74
2021/01/12 03:50:28;;;;;;;;;110.00;90.75;;;;;1.47;73.79;102143.13;5157429;27;8851;-73
2021/01/12 03:53:24;;;;;;;;;114.25;92.50;;;;;1.61;73.40;102136.38;5157542;27;8866;-72
2021/01/12 03:56:19;;;;;;;;;103.50;83.00;;;;;1.60;73.39;102139.31;5154020;27;8843;-72
2021/01/12 03:59:15;;;;;;;;;125.25;101.25;;;;;1.65;73.56;102153.91;5146454;27;8840;-72
2021/01/12 04:02:11;;;;;;;;;170.50;138.50;;;;;1.76;73.24;102137.78;5157396;27;8875;-72
2021/01/12 04:05:07;;;;;;;;;205.00;159.00;;;;;1.76;72.78;102126.88;5156822;27;9045;-72
2021/01/12 04:08:03;;;;;;;;;209.00;174.50;;;;;1.62;73.24;102129.84;5156920;27;8833;-72
2021/01/12 04:10:31;;;;;;;;;186.75;158.50;;;;;1.60;73.37;102152.94;5157879;27;8848;-72
2021/01/12 04:13:27;;;;;;;;;120.50;96.25;;;;;1.62;73.10;102159.03;5142820;27;8975;-72
2021/01/12 04:16:24;;;;;;;;;88.67;69.00;;;;;1.66;73.32;102168.38;5158822;27;8809;-72
2021/01/12 04:19:19;;;;;;;;;82.33;64.33;;;;;1.72;73.57;102174.81;5141028;27;8835;-72
2021/01/12 04:22:15;;;;;;;;;89.33;66.67;;;;;1.69;73.79;102178.84;5122166;27;8815;-72
2021/01/12 04:25:11;;;;;;;;;89.25;71.00;;;;;1.87;73.14;102169.72;5135885;27;8835;-72
2021/01/12 04:28:07;;;;;;;;;88.67;68.00;;;;;1.73;73.36;102168.28;5121162;27;8846;-72
2021/01/12 04:31:02;;;;;;;;;82.00;63.67;;;;;1.76;73.76;102159.59;5121997;27;9016;-71
2021/01/12 04:33:58;;;;;;;;;90.33;72.33;;;;;1.66;73.73;102147.38;5135917;27;8815;-73
2021/01/12 04:36:48;;;;;;;;;99.00;74.25;;;;;1.66;73.25;102143.84;5136412;27;8835;-72
2021/01/12 04:39:43;;;;;;;;;84.00;67.00;;;;;1.75;72.79;102134.22;5121796;27;8953;-72
2021/01/12 04:42:11;;;;;;;;;94.50;72.75;;;;;1.79;73.16;102140.88;5137112;27;8828;-72
2021/01/12 04:45:07;;;;;;;;;89.33;68.33;;;;;1.82;72.89;102169.56;5135690;27;8859;-73
2021/01/12 04:48:03;;;;;;;;;81.67;63.00;;;;;1.74;72.57;102181.66;5135843;27;8819;-72
2021/01/12 04:50:32;;;;;;;;;81.67;64.67;;;;;1.75;72.23;102169.69;5136689;27;8832;-72
2021/01/12 04:53:39;;;;;;;;;82.67;64.67;;;;;1.77;72.02;102177.66;5135384;27;8924;-72
2021/01/12 04:56:35;;;;;;;;;85.00;68.67;;;;;1.77;71.64;102181.22;5123844;27;8820;-72
2021/01/12 04:59:33;;;;;;;;;90.33;68.67;;;;;1.74;72.11;102178.94;5147413;27;9611;-72
2021/01/12 05:02:31;;;;;;;;;79.33;65.00;;;;;1.56;72.78;102166.25;5155692;27;8844;-72
2021/01/12 05:05:32;;;;;;;;;72.33;59.67;;;;;1.55;73.02;102141.94;5142025;27;8884;-72
2021/01/12 05:08:29;;;;;;;;;82.67;61.00;;;;;1.46;73.58;102157.81;5156114;27;8821;-73
2021/01/12 05:11:33;;;;;;;;;90.00;69.33;;;;;1.44;73.17;102170.00;5156705;27;8848;-73
2021/01/12 05:14:31;;;;;;;;;79.67;63.67;;;;;1.61;73.36;102184.59;5141466;27;9011;-73
2021/01/12 05:17:31;;;;;;;;;81.67;66.33;;;;;1.55;73.10;102189.13;5156445;27;8891;-72
2021/01/12 05:20:27;;;;;;;;;92.00;74.00;;;;;1.66;72.60;102182.84;5135217;27;8866;-72
2021/01/12 05:23:25;;;;;;;;;98.25;76.00;;;;;1.88;72.27;102182.28;5135886;27;8857;-73
2021/01/12 05:26:30;;;;;;;;;108.50;85.25;;;;;1.83;72.19;102180.25;5134453;27;8840;-72
2021/01/12 05:29:13;;;;;;;;;98.50;75.25;;;;;1.59;72.90;102182.13;5145515;27;8868;-73
2021/01/12 05:32:11;;;;;;;;;102.50;82.00;;;;;1.68;72.69;102177.16;5155893;27;8859;-72
2021/01/12 05:35:07;;;;;;;;;93.33;72.67;;;;;1.66;72.73;102188.31;5141716;27;8871;-72
2021/01/12 05:38:09;;;;;;;;;91.00;69.00;;;;;1.56;72.54;102195.41;5122476;27;8823;-72
2021/01/12 05:41:05;;;;;;;;;81.33;65.33;;;;;1.63;72.21;102188.78;5135065;27;8847;-72
2021/01/12 05:43:39;;;;;;;;;88.33;70.67;;;;;1.60;71.89;102167.41;5116951;27;8829;-72
2021/01/12 05:46:35;;;;;;;;;86.67;70.00;;;;;1.66;72.35;102182.00;5129273;27;8931;-71
2021/01/12 05:49:31;;;;;;;;;85.33;70.33;;;;;1.56;72.84;102185.31;5141303;27;8806;-72
2021/01/12 05:52:34;;;;;;;;;88.00;68.33;;;;;1.62;72.72;102189.03;5151220;27;9542;-71
2021/01/12 05:55:35;;;;;;;;;91.33;71.33;;;;;1.72;72.22;102193.88;5140864;27;8837;-71
2021/01/12 05:58:32;;;;;;;;;83.67;68.33;;;;;1.75;71.15;102188.78;5143961;27;8956;-72
2021/01/12 06:01:51;;;;;;;;;75.00;60.00;;;;;1.74;70.69;102173.47;5127364;27;8841;-73
2021/01/12 06:04:51;;;;;;;;;63.00;52.00;;;;;1.73;69.19;102162.81;5134397;27;8974;-72
2021/01/12 06:07:47;;;;;;;;;75.00;59.67;;;;;1.88;68.77;102168.63;5138602;27;8991;-73
2021/01/12 06:10:44;;;;;;;;;60.00;51.00;;;;;1.89;67.71;102181.22;5132651;27;8899;-72
2021/01/12 06:13:56;;;;;;;;;64.00;51.67;;;;;2.08;66.43;102185.50;5117177;27;8831;-72
2021/01/12 06:16:53;;;;;;;;;71.00;56.00;;;;;2.10;67.09;102193.44;5146380;27;8958;-71
2021/01/12 06:19:49;;;;;;;;;70.67;60.00;;;;;2.11;66.80;102192.38;5135033;27;8829;-71
2021/01/12 06:22:50;;;;;;;;;56.00;47.00;;;;;2.07;66.88;102199.34;5128924;27;8836;-71
2021/01/12 06:25:47;;;;;;;;;69.00;56.67;;;;;2.02;67.11;102208.28;5136997;27;8998;-72
2021/01/12 06:28:43;;;;;;;;;67.67;56.67;;;;;2.13;67.51;102206.59;5143792;27;8827;-71
2021/01/12 06:31:47;;;;;;;;;87.33;66.00;;;;;2.06;67.18;102208.63;5120099;27;8876;-72
2021/01/12 06:34:44;;;;;;;;;84.67;66.67;;;;;2.19;66.32;102200.19;5131274;27;8843;-71
2021/01/12 06:37:43;;;;;;;;;78.00;58.67;;;;;2.17;66.13;102210.53;5133154;27;8823;-71
2021/01/12 06:40:43;;;;;;;;;54.33;48.67;;;;;2.23;64.19;102207.69;5124416;27;8890;-71
2021/01/12 06:43:33;;;;;;;;;46.33;42.67;;;;;2.29;64.38;102214.06;5154828;27;8817;-71
2021/01/12 06:46:30;;;;;;;;;38.00;28.00;;;;;2.30;63.22;102215.75;5139897;27;8817;-72
2021/01/12 06:49:00;;;;;;;;;31.00;29.00;;;;;2.35;63.43;102213.13;5155166;27;8841;-71
2021/01/12 06:52:01;;;;;;;;;40.33;38.33;;;;;2.38;63.25;102214.56;5154422;27;8845;-70
2021/01/12 06:54:41;;;;;;;;;45.67;43.33;;;;;2.34;63.31;102200.53;5138161;27;8865;-71
2021/01/12 06:57:22;;;;;;;;;42.33;42.33;;;;;2.42;63.07;102194.72;5155219;27;8834;-70
2021/01/12 06:59:53;;;;;;;;;45.67;37.67;;;;;2.36;63.00;102187.47;5136232;27;8827;-70
2021/01/12 07:03:08;;;;;;;;;41.00;38.67;;;;;2.41;62.98;102176.69;5143338;27;8833;-71
2021/01/12 07:05:36;;;;;;;;;46.00;41.67;;;;;2.38;61.84;102171.69;5130783;27;8828;-71
2021/01/12 07:08:09;;;;;;;;;35.33;34.00;;;;;2.41;61.41;102159.47;5136706;27;8839;-72
2021/01/12 07:10:44;;;;;;;;;50.67;46.33;;;;;2.44;62.62;102157.06;5148903;27;8855;-72
2021/01/12 07:13:41;;;;;;;;;49.00;43.33;;;;;2.22;62.35;102156.88;5119639;27;8828;-70
2021/01/12 07:16:15;;;;;;;;;51.00;43.33;;;;;2.25;62.82;102155.56;5116462;27;8823;-71
2021/01/12 07:18:44;;;;;;;;;44.33;41.67;;;;;2.21;62.44;102155.19;5140532;27;8915;-72
2021/01/12 07:21:36;;;;;;;;;42.33;39.67;;;;;2.13;62.11;102150.09;5154974;27;8867;-72
2021/01/12 07:24:04;;;;;;;;;56.00;46.33;;;;;2.12;63.16;102148.44;5125649;27;8922;-70
2021/01/12 07:26:55;;;;;;;;;46.00;42.67;;;;;1.95;62.32;102148.34;5119302;27;8854;-70
2021/01/12 07:29:52;;;;;;;;;58.00;49.33;;;;;1.95;62.05;102144.78;5145190;27;8903;-70
2021/01/12 07:32:54;;;;;;;;;30.00;27.33;;;;;2.15;62.38;102139.81;5133627;27;8931;-71
2021/01/12 07:35:56;;;;;;;;;53.67;49.67;;;;;2.09;62.10;102139.94;5121195;27;8827;-71
2021/01/12 07:38:52;;;;;;;;;61.00;50.33;;;;;1.90;62.36;102139.22;5133550;27;8881;-71
2021/01/12 07:41:48;;;;;;;;;35.00;33.33;;;;;2.23;62.93;102155.00;5132732;27;8839;-73
2021/01/12 07:44:44;;;;;;;;;28.67;28.67;;;;;2.33;61.98;102152.47;5131831;27;8839;-71
2021/01/12 07:47:14;;;;;;;;;33.00;30.33;;;;;2.31;61.30;102148.31;5137834;27;8818;-71
2021/01/12 07:49:57;;;;;;;;;35.00;33.67;;;;;2.37;61.09;102150.91;5123652;27;8863;-71
2021/01/12 07:52:39;;;;;;;;;37.00;37.00;;;;;2.33;61.79;102144.28;5133192;27;8852;-71
2021/01/12 07:55:39;;;;;;;;;35.33;35.00;;;;;2.22;61.79;102135.06;5118762;27;8839;-72
2021/01/12 07:58:37;;;;;;;;;34.67;28.67;;;;;2.19;62.86;102137.41;5148650;27;8869;-71
2021/01/12 08:01:33;;;;;;;;;27.33;25.00;;;;;2.16;62.43;102132.44;5152238;27;8816;-71
2021/01/12 08:04:31;;;;;;;;;41.00;35.00;;;;;1.86;62.38;102147.06;5139219;27;8892;-70
2021/01/12 08:07:26;;;;;;;;;25.00;25.00;;;;;1.93;62.71;102138.75;5122337;27;8835;-70
2021/01/12 08:09:58;;;;;;;;;22.67;22.33;;;;;1.77;62.90;102142.19;5132630;27;8856;-72
2021/01/12 08:12:40;;;;;;;;;28.67;28.33;;;;;1.72;63.17;102145.63;5143504;27;8936;-72
2021/01/12 08:15:15;;;;;;;;;31.67;30.33;;;;;1.84;63.67;102142.88;5119381;27;8846;-72
2021/01/12 08:17:50;;;;;;;;;25.00;25.00;;;;;1.91;62.57;102151.78;5153179;27;8817;-72
2021/01/12 08:20:53;;;;;;;;;17.00;16.33;;;;;1.63;62.75;102142.41;5156313;27;8837;-71
2021/01/12 08:23:59;;;;;;;;;18.33;16.33;;;;;1.62;62.86;102129.03;5148911;27;8834;-71
2021/01/12 08:26:54;;;;;;;;;27.67;26.33;;;;;1.92;62.51;102135.19;5136348;27;8841;-72
2021/01/12 08:29:50;;;;;;;;;14.67;14.67;;;;;1.71;61.79;102122.16;5135794;27;8840;-71
2021/01/12 08:32:52;;;;;;;;;15.33;15.33;;;;;1.63;61.92;102109.69;5140766;27;8801;-71
2021/01/12 08:35:24;;;;;;;;;16.33;16.33;;;;;1.84;62.36;102097.34;5155753;27;8832;-72
2021/01/12 08:38:22;;;;;;;;;13.33;12.00;;;;;1.50;61.91;102106.34;5147240;27;8837;-71
2021/01/12 08:40:59;;;;;;;;;13.00;8.33;;;;;1.60;63.04;102101.97;5146248;27;8829;-70
2021/01/12 08:43:58;;;;;;;;;32.67;30.67;;;;;2.01;61.47;102110.28;5152738;27;9560;-72
2021/01/12 08:46:54;;;;;;;;;19.00;16.00;;;;;1.93;61.73;102119.66;5139186;27;8817;-72
2021/01/12 08:49:32;;;;;;;;;19.67;19.33;;;;;1.87;61.84;102126.88;5137680;27;8845;-71
2021/01/12 08:52:03;;;;;;;;;25.67;25.67;;;;;2.04;61.16;102124.25;5130344;27;8816;-71
2021/01/12 08:54:53;;;;;;;;;20.00;20.00;;;;;1.99;61.29;102105.03;5149983;27;8875;-71
2021/01/12 08:57:21;;;;;;;;;26.00;23.33;;;;;2.15;59.50;102107.06;5136675;27;9618;-71
2021/01/12 09:00:10;;;;;;;;;12.67;10.33;;;;;2.06;60.12;102091.25;5117150;27;8877;-71
2021/01/12 09:02:39;;;;;;;;;16.33;16.33;;;;;2.08;59.79;102083.69;5118543;27;9670;-72
2021/01/12 09:05:42;;;;;;;;;11.67;11.67;;;;;2.05;59.24;102078.69;5135493;27;11482;-71
2021/01/12 09:08:15;;;;;;;;;16.00;14.00;;;;;2.08;59.76;102079.06;5130349;27;11517;-72
2021/01/12 09:11:12;;;;;;;;;13.33;11.00;;;;;2.23;59.43;102086.75;5138255;27;11498;-72
2021/01/12 09:14:07;;;;;;;;;16.33;14.67;;;;;1.97;58.81;102087.25;5150368;27;11462;-71
2021/01/12 09:17:03;;;;;;;;;11.00;11.00;;;;;1.72;59.07;102063.78;5129268;27;11485;-72
2021/01/12 09:20:01;;;;;;;;;19.00;17.00;;;;;1.74;59.01;102039.81;5157331;27;12296;-72
2021/01/12 09:23:04;;;;;;;;;15.00;14.50;;;;;1.64;59.01;102028.69;5145248;27;11506;-72
2021/01/12 09:26:08;;;;;;;;;19.33;16.00;;;;;1.89;58.39;102014.78;5141468;27;11448;-71
2021/01/12 09:29:04;;;;;;;;;20.00;20.00;;;;;1.57;58.69;102011.63;5144429;27;11488;-72
2021/01/12 09:32:02;;;;;;;;;20.67;17.67;;;;;2.06;57.64;102001.19;5155504;27;11468;-72
2021/01/12 09:34:44;;;;;;;;;13.67;13.67;;;;;1.88;58.06;101994.84;5135012;27;11499;-71
2021/01/12 09:37:39;;;;;;;;;16.00;13.33;;;;;1.88;57.32;101994.84;5139727;27;11606;-72
2021/01/12 09:40:21;;;;;;;;;13.00;13.00;;;;;2.20;58.59;102000.69;5135979;27;11473;-71
2021/01/12 09:42:48;;;;;;;;;16.00;16.00;;;;;2.22;57.88;101992.25;5135684;27;11480;-71
2021/01/12 09:45:44;;;;;;;;;21.00;21.00;;;;;2.57;56.83;101989.34;5146475;27;11498;-72
2021/01/12 09:48:41;;;;;;;;;20.00;17.67;;;;;2.23;56.79;101975.66;5154897;27;11591;-72
2021/01/12 09:51:51;;;;;;;;;24.00;21.33;;;;;2.43;55.92;101969.72;5155992;27;11488;-71
2021/01/12 09:54:46;;;;;;;;;10.50;10.50;;;;;2.44;55.73;101968.63;5155013;27;11477;-72
2021/01/12 09:57:18;;;;;;;;;17.50;17.50;;;;;3.06;55.14;101976.78;5135636;27;12235;-72
2021/01/12 10:00:14;;;;;;;;;18.25;17.25;;;;;3.02;54.48;101975.66;5120729;27;11494;-72
2021/01/12 10:03:13;;;;;;;;;18.00;18.00;;;;;3.38;53.98;101981.66;5120247;27;11508;-73
2021/01/12 10:05:48;;;;;;;;;18.00;15.50;;;;;3.35;53.05;101971.22;5122387;27;11497;-71
2021/01/12 10:08:46;;;;;;;;;20.00;20.00;;;;;3.59;53.16;101948.03;5133938;27;11516;-71
2021/01/12 10:11:15;;;;;;;;;13.00;13.00;;;;;3.25;53.15;101944.56;5151740;27;12316;-72
2021/01/12 10:14:12;;;;;;;;;22.00;18.50;;;;;2.94;54.15;101929.59;5149423;27;11454;-70
2021/01/12 10:17:08;;;;;;;;;14.25;14.25;;;;;3.32;54.98;101947.13;5133081;27;11493;-69
2021/01/12 10:19:58;;;;;;;;;8.75;8.75;;;;;3.45;53.67;101952.25;5145513;27;11484;-70
2021/01/12 10:22:26;;;;;;;;;14.25;11.50;;;;;2.91;53.75;101926.53;5135067;27;11438;-70
2021/01/12 10:25:22;;;;;;;;;11.75;10.50;;;;;3.13;53.85;101929.31;5132702;27;12216;-70
2021/01/12 10:28:17;;;;;;;;;8.50;8.50;;;;;3.17;53.92;101930.50;5121208;27;12267;-70
2021/01/12 10:31:10;;;;;;;;;9.75;8.25;;;;;3.11;53.64;101931.50;5137662;27;11529;-70
2021/01/12 10:34:05;;;;;;;;;12.75;12.25;;;;;3.27;54.16;101915.06;5119609;27;11437;-70
2021/01/12 10:36:51;;;;;;;;;18.00;18.00;;;;;3.74;53.14;101911.00;5138685;27;11567;-70
2021/01/12 10:39:47;;;;;;;;;16.75;16.75;;;;;3.12;53.73;101903.91;5138119;27;11535;-70
2021/01/12 10:42:44;;;;;;;;;11.50;11.50;;;;;3.55;52.98;101905.03;5118732;27;11487;-69
2021/01/12 10:45:20;;;;;;;;;12.00;12.00;;;;;3.57;53.89;101906.44;5134429;27;11566;-69
2021/01/12 10:48:15;;;;;;;;;12.00;12.00;;;;;3.71;52.55;101912.34;5120571;27;11473;-69
2021/01/12 10:51:11;;;;;;;;;15.25;15.25;;;;;3.82;52.38;101896.88;5133023;27;12182;-70
2021/01/12 10:53:40;;;;;;;;;7.75;7.75;;;;;3.73;52.86;101903.88;5134176;27;11533;-69
2021/01/12 10:56:29;;;;;;;;;10.00;10.00;;;;;3.53;52.84;101909.94;5114829;27;11468;-70
2021/01/12 10:59:11;;;;;;;;;12.00;12.00;;;;;3.90;53.07;101912.81;5146441;27;11561;-70
2021/01/12 11:01:41;;;;;;;;;15.00;12.50;;;;;4.16;52.49;101900.25;5154830;27;11458;-69
2021/01/12 11:04:12;;;;;;;;;8.50;8.50;;;;;3.84;52.30;101883.78;5154900;27;11444;-73
2021/01/12 11:06:42;;;;;;;;;12.00;12.00;;;;;3.80;51.51;101890.81;5136215;27;11480;-70
2021/01/12 11:09:11;;;;;;;;;8.50;8.50;;;;;3.63;52.96;101899.94;5136687;27;11460;-69
2021/01/12 11:11:39;;;;;;;;;19.75;18.00;;;;;3.48;53.23;101872.41;5154973;27;11510;-69
2021/01/12 11:14:07;;;;;;;;;14.00;14.00;;;;;3.60;51.82;101872.25;5123436;27;11504;-70
2021/01/12 11:16:39;;;;;;;;;15.00;15.00;;;;;3.76;53.54;101867.81;5141833;27;12291;-70
2021/01/12 11:19:08;;;;;;;;;16.75;16.75;;;;;3.86;52.49;101863.25;5134618;27;11502;-70
2021/01/12 11:21:59;;;;;;;;;15.25;15.25;;;;;3.64;52.47;101867.94;5137663;27;12347;-69
2021/01/12 11:24:58;;;;;;;;;21.25;20.75;;;;;3.56;52.79;101855.53;5142720;27;11495;-68
2021/01/12 11:27:30;;;;;;;;;15.50;14.50;;;;;3.46;53.48;101865.53;5137197;27;11534;-68
2021/01/12 11:30:20;;;;;;;;;41.00;38.75;;;;;3.62;53.24;101860.00;5102206;27;12290;-70
2021/01/12 11:33:09;;;;;;;;;14.00;14.00;;;;;3.66;53.56;101854.81;5138974;27;11595;-70
2021/01/12 11:36:05;;;;;;;;;15.75;15.75;;;;;3.67;53.20;101867.41;5139771;27;11462;-69
2021/01/12 11:39:01;;;;;;;;;9.50;9.00;;;;;3.30;53.62;101870.00;5145081;27;11483;-70
2021/01/12 11:41:57;;;;;;;;;15.00;15.00;;;;;3.23;53.80;101853.75;5130399;27;11490;-70
2021/01/12 11:44:29;;;;;;;;;18.00;18.00;;;;;3.45;53.38;101842.84;5144633;27;11472;-69
2021/01/12 11:46:56;;;;;;;;;15.25;14.75;;;;;3.36;53.50;101847.06;5121666;27;11550;-69
2021/01/12 11:49:52;;;;;;;;;21.75;20.25;;;;;3.16;53.26;101833.16;5136863;27;11493;-69
2021/01/12 11:52:20;;;;;;;;;20.00;18.25;;;;;3.18;53.98;101829.09;5119710;27;11501;-70
2021/01/12 11:55:15;;;;;;;;;21.25;21.25;;;;;3.12;54.42;101843.75;5137571;27;11524;-69
2021/01/12 11:57:57;;;;;;;;;17.00;17.00;;;;;2.90;54.78;101846.47;5132087;27;11495;-69
2021/01/12 12:00:26;;;;;;;;;23.67;23.00;;;;;2.93;54.44;101851.44;5137562;27;11605;-70
2021/01/12 12:03:08;;;;;;;;;20.67;17.67;;;;;2.67;54.53;101854.84;5147600;27;12309;-69
2021/01/12 12:06:04;;;;;;;;;24.33;23.00;;;;;2.91;54.26;101837.19;5147696;27;11605;-69
2021/01/12 12:08:31;;;;;;;;;14.67;14.67;;;;;2.92;54.90;101827.09;5148080;27;12245;-69
2021/01/12 12:11:27;;;;;;;;;17.00;17.00;;;;;2.72;54.74;101827.63;5136268;27;11496;-68
2021/01/12 12:13:54;;;;;;;;;23.67;23.67;;;;;2.67;54.26;101843.94;5149644;27;11695;-69
2021/01/12 12:16:22;;;;;;;;;19.00;16.33;;;;;2.75;55.35;101846.22;5148476;27;11501;-69
2021/01/12 12:18:50;;;;;;;;;26.67;26.67;;;;;3.20;54.57;101847.97;5150434;27;11478;-70
2021/01/12 12:21:17;;;;;;;;;26.00;26.00;;;;;3.36;54.45;101830.66;5121800;27;11617;-70
2021/01/12 12:23:45;;;;;;;;;19.00;18.00;;;;;3.02;53.83;101810.84;5149104;27;11478;-68
2021/01/12 12:26:41;;;;;;;;;23.67;21.67;;;;;2.99;55.05;101800.38;5137174;27;12261;-68
2021/01/12 12:29:37;;;;;;;;;22.00;22.00;;;;;3.13;54.74;101798.94;5145047;27;11483;-69
2021/01/12 12:32:32;;;;;;;;;22.67;22.67;;;;;2.84;55.53;101792.84;5135927;27;12344;-70
2021/01/12 12:35:28;;;;;;;;;28.33;28.33;;;;;2.95;54.89;101797.34;5133437;27;11506;-70
2021/01/12 12:37:55;;;;;;;;;14.00;14.00;;;;;2.84;56.05;101798.31;5154566;27;11539;-70
2021/01/12 12:40:23;;;;;;;;;21.67;21.67;;;;;2.82;55.43;101791.41;5118200;27;11599;-70
2021/01/12 12:43:20;;;;;;;;;25.67;25.67;;;;;3.17;55.09;101785.59;5122737;27;12222;-69
2021/01/12 12:46:10;;;;;;;;;25.00;25.00;;;;;2.97;55.70;101776.06;5141164;27;13100;-69
2021/01/12 12:48:38;;;;;;;;;36.00;27.67;;;;;3.00;55.05;101770.09;5144050;27;11594;-69
2021/01/12 12:51:35;;;;;;;;;24.75;23.00;;;;;2.76;55.40;101769.50;5123415;27;12538;-70
2021/01/12 12:54:12;;;;;;;;;23.00;21.67;;;;;2.71;55.04;101763.97;5140955;27;11679;-69
2021/01/12 12:57:08;;;;;;;;;24.00;23.00;;;;;2.37;55.06;101774.09;5135360;27;11570;-69
2021/01/12 12:59:38;;;;;;;;;21.00;21.00;;;;;2.41;55.03;101771.72;5141821;27;12235;-69
2021/01/12 13:02:20;;;;;;;;;20.33;20.33;;;;;2.34;55.02;101760.97;5136654;27;11501;-69
2021/01/12 13:05:16;;;;;;;;;19.67;19.67;;;;;2.17;55.39;101765.63;5149997;27;11561;-69